This is the latest recevied weather packets stored in our database for station/object GW1492. If no packets are shown the sender has not sent any weather packets the latest 10 day(s).
| Time | Temp. | Humidity | Pressure | Rain* | Wind** | Luminosity | Snow |
|---|---|---|---|---|---|---|---|
| 1777388785 | 15.56° C | 88% | 1020.3 hPa | 0 mm | - | - | - |
| 1777388452 | 15.56° C | 88% | 1019.9 hPa | 0 mm | - | - | - |
| 1777382664 | 12.78° C | 91% | 1018.6 hPa | 0 mm | - | - | - |
| 1777380158 | 12.22° C | 92% | 1019.6 hPa | 0 mm | - | - | - |
| 1777379789 | 12.22° C | 92% | 1019.6 hPa | 0 mm | - | - | - |
| 1777379443 | 12.22° C | 92% | 1019.3 hPa | 0 mm | - | - | - |
| 1777377651 | 11.67° C | 93% | 1019.6 hPa | 0 mm | - | - | - |
| 1777376930 | 11.67° C | 94% | 1019.3 hPa | 0 mm | - | - | - |
| 1777374051 | 11.11° C | 93% | 1019.9 hPa | 0 mm | - | - | - |
| 1777373323 | 11.11° C | 93% | 1020.6 hPa | 0 mm | - | - | - |
| 1777371886 | 11.11° C | 92% | 1021.3 hPa | 0 mm | - | - | - |
| 1777371509 | 11.11° C | 92% | 1021.6 hPa | 0 mm | - | - | - |
| 1777367892 | 12.22° C | 87% | 1020.9 hPa | 0 mm | - | - | - |
| 1777366828 | 11.67° C | 89% | 1021.6 hPa | 0 mm | - | - | - |
| 1777366464 | 11.67° C | 90% | 1019.9 hPa | 0 mm | - | - | - |
| 1777365750 | 11.67° C | 89% | 1018.6 hPa | 0 mm | - | - | - |
| 1777363960 | 11.67° C | 90% | 1017.2 hPa | 0 mm | - | - | - |
| 1777361788 | 11.67° C | 90% | 1016.9 hPa | 0 mm | - | - | - |
| 1777360346 | 11.67° C | 89% | 1017.2 hPa | 0 mm | - | - | - |
| 1777356025 | 14.44° C | 72% | 1017.9 hPa | 0 mm | - | - | - |
| 1777350613 | 15° C | 68% | 1018.2 hPa | 0 mm | - | - | - |
| 1777349561 | 15° C | 64% | 1018.9 hPa | 0 mm | - | - | - |
| 1777348489 | 15° C | 64% | 1018.9 hPa | 0.51 mm | - | - | - |
| 1777347395 | 15° C | 66% | 1018.9 hPa | 0.51 mm | - | - | - |
| 1777346688 | 15.56° C | 65% | 1019.3 hPa | 0.51 mm | - | - | - |
* Rain since midnight (hover to see other rain measurements)
** Current wind speed in m/s (hover to see current wind gust speed)